Time;durP1;ratioP1;P1;durP2;ratioP2;P2;SDS_P1;SDS_P2;PMS_P1;PMS_P2;Temp;Humidity;BMP_temperature;BMP_pressure;BME280_temperature;BME280_humidity;BME280_pressure;Samples;Min_cycle;Max_cycle;Signal;HPM_P1;HPM_P2
2023/12/04 00:02:20;;;;;;;11.93;9.83;;;;;;;;;;5075009;28;20040;-52
2023/12/04 00:04:46;;;;;;;13.77;10.63;;;;;;;;;;5062523;28;22012;-50
2023/12/04 00:07:12;;;;;;;12.63;9.30;;;;;;;;;;5066548;28;20106;-48
2023/12/04 00:09:38;;;;;;;12.83;10.23;;;;;;;;;;5074187;28;20027;-49
2023/12/04 00:12:04;;;;;;;12.17;9.37;;;;;;;;;;5087031;28;20107;-49
2023/12/04 00:14:30;;;;;;;11.83;8.97;;;;;;;;;;5066799;28;20036;-49
2023/12/04 00:16:56;;;;;;;13.40;9.70;;;;;;;;;;5081126;28;20127;-50
2023/12/04 00:19:22;;;;;;;11.67;9.30;;;;;;;;;;5081409;28;20082;-49
2023/12/04 00:21:48;;;;;;;14.53;10.03;;;;;;;;;;5076425;28;20429;-49
2023/12/04 00:24:14;;;;;;;12.20;9.50;;;;;;;;;;5073976;28;20040;-50
2023/12/04 00:26:40;;;;;;;12.43;9.07;;;;;;;;;;5076961;28;20083;-49
2023/12/04 00:29:06;;;;;;;12.23;9.27;;;;;;;;;;5076920;28;20044;-50
2023/12/04 00:31:32;;;;;;;11.67;8.73;;;;;;;;;;5078193;28;20028;-52
2023/12/04 00:33:58;;;;;;;10.83;8.87;;;;;;;;;;5078837;28;20020;-50
2023/12/04 00:36:24;;;;;;;9.73;8.20;;;;;;;;;;5071512;28;20037;-49
2023/12/04 00:38:50;;;;;;;9.83;8.20;;;;;;;;;;5079355;28;20020;-50
2023/12/04 00:41:16;;;;;;;12.40;8.53;;;;;;;;;;5082022;28;20035;-51
2023/12/04 00:43:42;;;;;;;11.73;7.73;;;;;;;;;;5077011;28;20485;-51
2023/12/04 00:46:08;;;;;;;13.93;8.80;;;;;;;;;;5071927;28;20044;-48
2023/12/04 00:48:34;;;;;;;11.33;7.90;;;;;;;;;;5072164;28;20025;-50
2023/12/04 00:51:00;;;;;;;11.87;7.77;;;;;;;;;;5054489;28;20036;-52
2023/12/04 00:53:26;;;;;;;11.07;8.33;;;;;;;;;;5082170;28;20458;-49
2023/12/04 00:55:52;;;;;;;11.10;8.40;;;;;;;;;;5080129;28;20032;-51
2023/12/04 00:58:18;;;;;;;12.27;8.43;;;;;;;;;;5076305;28;20497;-52
2023/12/04 01:00:44;;;;;;;10.70;8.33;;;;;;;;;;5071375;28;20032;-53
2023/12/04 01:03:10;;;;;;;12.70;8.60;;;;;;;;;;5085798;28;20029;-52
2023/12/04 01:05:36;;;;;;;10.17;7.33;;;;;;;;;;5079837;28;20044;-51
2023/12/04 01:08:02;;;;;;;13.23;7.40;;;;;;;;;;5077626;28;20385;-51
2023/12/04 01:10:28;;;;;;;10.43;8.00;;;;;;;;;;5078123;28;20032;-53
2023/12/04 01:12:54;;;;;;;9.93;7.63;;;;;;;;;;5072818;28;20056;-50
2023/12/04 01:15:20;;;;;;;10.03;6.97;;;;;;;;;;5084085;28;20472;-51
2023/12/04 01:17:46;;;;;;;13.20;7.87;;;;;;;;;;5083271;28;20025;-52
2023/12/04 01:20:13;;;;;;;8.93;7.90;;;;;;;;;;5076620;28;20029;-50
2023/12/04 01:22:39;;;;;;;10.73;7.40;;;;;;;;;;5078003;28;20036;-49
2023/12/04 01:25:05;;;;;;;8.90;7.57;;;;;;;;;;5075299;28;20429;-53
2023/12/04 01:27:31;;;;;;;8.63;7.63;;;;;;;;;;5090766;28;20031;-52
2023/12/04 01:29:57;;;;;;;11.37;7.80;;;;;;;;;;5078988;28;20016;-50
2023/12/04 01:32:23;;;;;;;10.50;7.43;;;;;;;;;;5082526;28;20020;-53
2023/12/04 01:34:49;;;;;;;8.83;7.57;;;;;;;;;;5075017;28;20031;-53
2023/12/04 01:37:15;;;;;;;8.83;6.97;;;;;;;;;;5085429;28;20020;-49
2023/12/04 01:39:41;;;;;;;9.00;7.17;;;;;;;;;;5082651;28;20020;-50
2023/12/04 01:42:07;;;;;;;11.20;7.77;;;;;;;;;;5085882;28;20024;-51
2023/12/04 01:44:33;;;;;;;9.53;7.77;;;;;;;;;;5074309;28;20436;-50
2023/12/04 01:46:59;;;;;;;9.67;7.77;;;;;;;;;;5074225;28;20065;-53
2023/12/04 01:49:25;;;;;;;8.23;6.93;;;;;;;;;;5086462;28;20382;-52
2023/12/04 01:51:51;;;;;;;9.20;7.27;;;;;;;;;;5074805;28;20032;-49
2023/12/04 01:54:18;;;;;;;10.90;7.70;;;;;;;;;;5079810;28;20035;-53
2023/12/04 01:56:44;;;;;;;13.40;8.47;;;;;;;;;;5076165;28;20099;-51
2023/12/04 01:59:10;;;;;;;10.03;7.67;;;;;;;;;;5070568;28;20032;-52
2023/12/04 02:01:36;;;;;;;11.37;7.67;;;;;;;;;;5066530;28;20037;-50
2023/12/04 02:04:03;;;;;;;9.37;7.50;;;;;;;;;;5070983;28;20028;-53
2023/12/04 02:06:29;;;;;;;11.13;7.67;;;;;;;;;;5076299;28;20036;-52
2023/12/04 02:08:55;;;;;;;8.67;7.60;;;;;;;;;;5072086;28;20070;-52
2023/12/04 02:11:21;;;;;;;11.77;8.07;;;;;;;;;;5076189;28;20028;-53
2023/12/04 02:13:47;;;;;;;11.43;7.50;;;;;;;;;;5073959;28;20100;-54
2023/12/04 02:16:15;;;;;;;10.23;8.03;;;;;;;;;;5067156;28;20021;-54
2023/12/04 02:18:41;;;;;;;10.70;7.43;;;;;;;;;;5061787;28;20454;-52
2023/12/04 02:21:07;;;;;;;11.50;7.33;;;;;;;;;;5072946;28;20020;-54
2023/12/04 02:23:33;;;;;;;8.80;7.27;;;;;;;;;;5069131;28;20021;-53
2023/12/04 02:26:01;;;;;;;10.37;8.03;;;;;;;;;;5075063;28;20047;-49
2023/12/04 02:28:31;;;;;;;10.80;7.60;;;;;;;;;;5073400;28;20481;-53
2023/12/04 02:30:58;;;;;;;9.80;7.70;;;;;;;;;;5074474;28;20496;-52
2023/12/04 02:33:25;;;;;;;9.27;7.63;;;;;;;;;;5080221;28;20085;-50
2023/12/04 02:35:52;;;;;;;9.53;7.40;;;;;;;;;;5078011;28;20028;-49
2023/12/04 02:38:18;;;;;;;8.90;7.23;;;;;;;;;;5078996;28;20159;-51
2023/12/04 02:40:44;;;;;;;9.50;7.13;;;;;;;;;;5073521;28;20066;-48
2023/12/04 02:43:10;;;;;;;9.07;7.17;;;;;;;;;;5078855;28;20135;-52
2023/12/04 02:45:36;;;;;;;8.10;7.13;;;;;;;;;;5077187;28;20495;-52
2023/12/04 02:48:02;;;;;;;10.10;7.70;;;;;;;;;;5080292;28;20096;-52
2023/12/04 02:50:28;;;;;;;16.47;7.87;;;;;;;;;;5074908;28;20437;-50
2023/12/04 02:52:54;;;;;;;11.23;7.10;;;;;;;;;;5083376;28;20028;-50
2023/12/04 02:55:20;;;;;;;10.43;7.50;;;;;;;;;;5064555;28;20033;-49
2023/12/04 02:57:46;;;;;;;9.27;7.43;;;;;;;;;;5068962;28;20051;-51
2023/12/04 03:00:13;;;;;;;8.70;6.87;;;;;;;;;;5072356;28;20020;-49
2023/12/04 03:02:38;;;;;;;9.13;7.40;;;;;;;;;;5083435;28;20071;-49
2023/12/04 03:05:05;;;;;;;9.07;7.17;;;;;;;;;;5080955;28;20041;-48
2023/12/04 03:07:31;;;;;;;9.53;6.67;;;;;;;;;;5086938;28;20037;-48
2023/12/04 03:09:57;;;;;;;8.27;7.13;;;;;;;;;;5076111;28;20057;-50
2023/12/04 03:12:23;;;;;;;9.27;6.80;;;;;;;;;;5071511;28;20020;-49
2023/12/04 03:14:49;;;;;;;9.63;7.30;;;;;;;;;;5067638;28;20284;-48
2023/12/04 03:17:15;;;;;;;9.20;7.27;;;;;;;;;;5072468;28;20050;-50
2023/12/04 03:19:41;;;;;;;7.90;6.53;;;;;;;;;;5072513;28;20028;-49
2023/12/04 03:22:07;;;;;;;9.33;7.17;;;;;;;;;;5079315;28;20034;-51
2023/12/04 03:24:33;;;;;;;9.07;6.83;;;;;;;;;;5070643;28;20029;-52
2023/12/04 03:26:59;;;;;;;7.63;6.40;;;;;;;;;;5076784;28;20036;-49
2023/12/04 03:29:25;;;;;;;11.30;7.70;;;;;;;;;;5074023;28;20025;-49
2023/12/04 03:31:51;;;;;;;9.97;7.20;;;;;;;;;;5062911;28;20389;-50
2023/12/04 03:34:17;;;;;;;8.57;6.77;;;;;;;;;;5070385;28;20111;-49
2023/12/04 03:36:43;;;;;;;10.60;6.93;;;;;;;;;;5073396;28;20012;-50
2023/12/04 03:39:09;;;;;;;7.80;6.43;;;;;;;;;;5071673;28;20071;-49
2023/12/04 03:41:35;;;;;;;8.83;6.67;;;;;;;;;;5079886;28;20016;-52
2023/12/04 03:44:01;;;;;;;8.40;6.60;;;;;;;;;;5077446;28;20124;-49
2023/12/04 03:46:27;;;;;;;9.80;7.10;;;;;;;;;;5059206;28;20112;-50
2023/12/04 03:48:53;;;;;;;8.17;6.77;;;;;;;;;;5076712;28;20062;-51
2023/12/04 03:51:19;;;;;;;11.63;7.07;;;;;;;;;;5076802;28;20403;-53
2023/12/04 03:53:45;;;;;;;9.37;6.47;;;;;;;;;;5073487;28;20025;-49
2023/12/04 03:56:12;;;;;;;9.47;7.57;;;;;;;;;;5079577;28;20088;-51
2023/12/04 03:58:38;;;;;;;9.17;6.90;;;;;;;;;;5072422;28;20036;-51
2023/12/04 04:01:04;;;;;;;7.37;6.27;;;;;;;;;;5074275;28;20469;-53
2023/12/04 04:03:30;;;;;;;6.73;6.10;;;;;;;;;;5070919;28;20029;-50
2023/12/04 04:05:56;;;;;;;9.10;6.63;;;;;;;;;;5065668;28;20037;-50
2023/12/04 04:08:22;;;;;;;8.37;6.43;;;;;;;;;;5073044;28;20023;-53
2023/12/04 04:10:48;;;;;;;7.83;6.50;;;;;;;;;;5077214;28;20029;-52
2023/12/04 04:13:14;;;;;;;10.63;7.13;;;;;;;;;;5072962;28;20381;-51
2023/12/04 04:15:40;;;;;;;7.37;6.60;;;;;;;;;;5074246;28;20028;-54
2023/12/04 04:18:06;;;;;;;8.33;6.63;;;;;;;;;;5063924;28;20021;-51
2023/12/04 04:20:32;;;;;;;8.73;7.00;;;;;;;;;;5070743;28;20028;-53
2023/12/04 04:22:58;;;;;;;8.70;6.37;;;;;;;;;;5070491;28;20526;-49
2023/12/04 04:25:24;;;;;;;8.37;6.90;;;;;;;;;;5075106;28;20473;-51
2023/12/04 04:27:50;;;;;;;8.23;6.87;;;;;;;;;;5066942;28;20032;-51
2023/12/04 04:30:17;;;;;;;8.27;7.00;;;;;;;;;;5070786;28;20082;-49
2023/12/04 04:32:43;;;;;;;7.83;6.60;;;;;;;;;;5071366;28;20127;-51
2023/12/04 04:35:09;;;;;;;8.00;6.53;;;;;;;;;;5070760;28;20119;-52
2023/12/04 04:37:35;;;;;;;9.27;6.50;;;;;;;;;;5071855;28;20062;-49
2023/12/04 04:40:01;;;;;;;8.23;6.57;;;;;;;;;;5075312;28;20021;-52
2023/12/04 04:42:27;;;;;;;9.47;6.50;;;;;;;;;;5076086;28;20031;-50
2023/12/04 04:44:53;;;;;;;8.30;6.50;;;;;;;;;;5083343;28;20051;-50
2023/12/04 04:47:19;;;;;;;8.43;6.23;;;;;;;;;;5072611;28;20491;-54
2023/12/04 04:49:45;;;;;;;7.60;6.60;;;;;;;;;;5071389;28;20119;-53
2023/12/04 04:52:11;;;;;;;8.60;6.57;;;;;;;;;;5072023;28;20054;-50
2023/12/04 04:54:37;;;;;;;9.27;6.37;;;;;;;;;;5080760;28;20126;-50
2023/12/04 04:57:03;;;;;;;9.40;6.93;;;;;;;;;;5076724;28;20021;-54
2023/12/04 04:59:30;;;;;;;9.30;7.03;;;;;;;;;;5079320;28;20044;-50
2023/12/04 05:01:56;;;;;;;8.57;6.33;;;;;;;;;;5077834;28;20016;-54
2023/12/04 05:04:22;;;;;;;9.90;7.10;;;;;;;;;;5073254;28;20021;-50
2023/12/04 05:06:48;;;;;;;9.73;6.57;;;;;;;;;;5070196;28;20043;-51
2023/12/04 05:09:14;;;;;;;9.30;6.50;;;;;;;;;;5080731;28;20028;-51
2023/12/04 05:11:40;;;;;;;7.87;6.70;;;;;;;;;;5073330;28;20028;-54
2023/12/04 05:14:06;;;;;;;9.47;6.70;;;;;;;;;;5079520;28;20089;-54
2023/12/04 05:16:32;;;;;;;10.27;6.87;;;;;;;;;;5071113;28;20044;-54
2023/12/04 05:18:59;;;;;;;9.63;7.67;;;;;;;;;;5078665;28;20032;-54
2023/12/04 05:21:25;;;;;;;9.00;7.30;;;;;;;;;;5074440;28;20461;-51
2023/12/04 05:23:51;;;;;;;7.87;6.53;;;;;;;;;;5078937;28;20055;-54
2023/12/04 05:26:17;;;;;;;9.20;7.33;;;;;;;;;;5068855;28;20563;-54
2023/12/04 05:28:43;;;;;;;8.53;7.17;;;;;;;;;;5071744;28;20048;-53
2023/12/04 05:31:09;;;;;;;10.90;7.77;;;;;;;;;;5067767;28;20111;-52
2023/12/04 05:33:34;;;;;;;9.17;7.53;;;;;;;;;;5075352;28;20055;-52
2023/12/04 05:36:01;;;;;;;10.23;6.53;;;;;;;;;;5064324;28;20041;-51
2023/12/04 05:38:27;;;;;;;10.53;7.80;;;;;;;;;;5066736;28;20024;-51
2023/12/04 05:40:54;;;;;;;8.83;6.90;;;;;;;;;;5071931;28;20039;-53
2023/12/04 05:43:20;;;;;;;9.23;7.17;;;;;;;;;;5068992;28;20052;-53
2023/12/04 05:45:46;;;;;;;10.53;7.47;;;;;;;;;;5067997;28;20036;-53
2023/12/04 05:48:12;;;;;;;11.37;7.97;;;;;;;;;;5076298;28;20037;-52
2023/12/04 05:50:38;;;;;;;9.37;8.20;;;;;;;;;;5067936;28;20074;-52
2023/12/04 05:53:04;;;;;;;9.33;8.10;;;;;;;;;;5064365;28;20032;-52
2023/12/04 05:55:30;;;;;;;8.60;7.40;;;;;;;;;;5059159;28;20040;-49
2023/12/04 05:57:56;;;;;;;8.60;7.70;;;;;;;;;;5077818;28;20500;-50
2023/12/04 06:00:22;;;;;;;9.07;8.17;;;;;;;;;;5072148;28;20039;-53
2023/12/04 06:02:48;;;;;;;11.03;7.67;;;;;;;;;;5084249;28;20037;-51
2023/12/04 06:05:14;;;;;;;11.60;8.47;;;;;;;;;;5065270;28;20021;-49
2023/12/04 06:07:41;;;;;;;8.80;7.90;;;;;;;;;;5075360;28;20141;-50
2023/12/04 06:10:08;;;;;;;10.87;8.10;;;;;;;;;;5087064;28;20024;-49
2023/12/04 06:12:34;;;;;;;11.33;7.77;;;;;;;;;;5087182;28;20024;-49
2023/12/04 06:15:00;;;;;;;10.60;8.10;;;;;;;;;;5073501;28;20358;-50
2023/12/04 06:17:27;;;;;;;9.90;7.90;;;;;;;;;;5062541;28;20025;-49
2023/12/04 06:19:53;;;;;;;10.33;8.17;;;;;;;;;;5071319;28;20100;-53
2023/12/04 06:22:21;;;;;;;9.37;7.90;;;;;;;;;;5072037;28;20033;-50
2023/12/04 06:24:47;;;;;;;9.07;7.27;;;;;;;;;;5072666;28;20030;-52
2023/12/04 06:27:19;;;;;;;11.63;8.23;;;;;;;;;;5060455;28;20020;-50
2023/12/04 06:29:46;;;;;;;10.77;8.07;;;;;;;;;;5061055;28;20481;-49
2023/12/04 06:32:12;;;;;;;11.37;8.73;;;;;;;;;;5074815;28;20059;-52
2023/12/04 06:34:38;;;;;;;10.93;8.40;;;;;;;;;;5074899;28;20095;-52
2023/12/04 06:37:07;;;;;;;15.33;9.47;;;;;;;;;;5080027;28;20350;-50
2023/12/04 06:39:34;;;;;;;11.07;9.17;;;;;;;;;;5074793;28;20473;-54
2023/12/04 06:42:00;;;;;;;13.13;9.20;;;;;;;;;;5074294;28;20140;-50
2023/12/04 06:44:26;;;;;;;16.70;9.93;;;;;;;;;;5064510;28;20044;-53
2023/12/04 06:46:53;;;;;;;10.77;9.00;;;;;;;;;;5062030;28;20447;-50
2023/12/04 06:49:19;;;;;;;13.07;9.30;;;;;;;;;;5068500;28;20029;-50
2023/12/04 06:51:45;;;;;;;10.90;8.63;;;;;;;;;;5071603;28;20134;-51
2023/12/04 06:54:13;;;;;;;12.07;9.83;;;;;;;;;;5074809;28;20509;-52
2023/12/04 06:56:39;;;;;;;11.83;9.80;;;;;;;;;;5074555;28;20406;-51
2023/12/04 06:59:05;;;;;;;13.70;10.03;;;;;;;;;;5074602;28;20025;-50
2023/12/04 07:01:31;;;;;;;14.33;10.57;;;;;;;;;;5074739;28;20044;-51
2023/12/04 07:03:57;;;;;;;14.27;10.60;;;;;;;;;;5074935;28;20444;-50
2023/12/04 07:06:24;;;;;;;13.10;10.57;;;;;;;;;;5072900;28;20032;-54
2023/12/04 07:08:50;;;;;;;13.80;11.20;;;;;;;;;;5069467;28;20062;-50
2023/12/04 07:11:16;;;;;;;13.70;11.03;;;;;;;;;;5073876;28;20029;-53
2023/12/04 07:13:42;;;;;;;13.90;11.07;;;;;;;;;;5074291;28;20017;-51
2023/12/04 07:16:09;;;;;;;16.50;11.60;;;;;;;;;;5074068;28;20024;-52
2023/12/04 07:18:35;;;;;;;14.40;10.53;;;;;;;;;;5069726;28;20059;-54
2023/12/04 07:21:01;;;;;;;13.60;11.57;;;;;;;;;;5067170;28;20024;-53
2023/12/04 07:23:27;;;;;;;13.30;10.60;;;;;;;;;;5072169;28;20074;-55
2023/12/04 07:25:53;;;;;;;13.40;10.33;;;;;;;;;;5059491;28;20084;-53
2023/12/04 07:28:19;;;;;;;13.97;9.97;;;;;;;;;;5054980;28;20048;-58
2023/12/04 07:30:46;;;;;;;15.23;10.80;;;;;;;;;;5064032;28;20116;-55
2023/12/04 07:33:12;;;;;;;14.37;11.13;;;;;;;;;;5060620;28;20032;-58
2023/12/04 07:35:38;;;;;;;18.97;11.10;;;;;;;;;;5053042;28;20033;-57
2023/12/04 07:38:04;;;;;;;14.27;11.70;;;;;;;;;;5055911;28;20468;-57
2023/12/04 07:40:30;;;;;;;14.67;11.70;;;;;;;;;;5066188;28;20033;-58
2023/12/04 07:42:56;;;;;;;16.13;11.13;;;;;;;;;;5062127;28;20047;-58
2023/12/04 07:45:23;;;;;;;14.83;10.93;;;;;;;;;;5067565;28;20032;-59
2023/12/04 07:47:50;;;;;;;14.57;10.73;;;;;;;;;;5063784;28;20041;-57
2023/12/04 07:50:16;;;;;;;15.00;11.80;;;;;;;;;;5055543;28;20029;-57
2023/12/04 07:52:43;;;;;;;14.07;10.60;;;;;;;;;;5064156;28;20021;-57
2023/12/04 07:55:09;;;;;;;13.43;11.33;;;;;;;;;;5070028;28;20482;-57
2023/12/04 07:57:35;;;;;;;13.23;10.37;;;;;;;;;;5059572;28;20516;-58
2023/12/04 08:00:01;;;;;;;12.93;10.27;;;;;;;;;;5059387;28;20025;-56
2023/12/04 08:02:27;;;;;;;17.30;10.47;;;;;;;;;;5058257;28;20021;-58
2023/12/04 08:04:54;;;;;;;13.03;10.13;;;;;;;;;;5057180;28;20024;-58
2023/12/04 08:07:20;;;;;;;13.90;10.40;;;;;;;;;;5068940;28;20055;-57
2023/12/04 08:09:46;;;;;;;12.50;10.20;;;;;;;;;;5071025;28;20308;-58
2023/12/04 08:12:12;;;;;;;13.70;10.20;;;;;;;;;;5067798;28;20028;-57
2023/12/04 08:14:38;;;;;;;13.63;9.90;;;;;;;;;;5065641;28;20028;-58
2023/12/04 08:17:04;;;;;;;14.43;10.43;;;;;;;;;;5057970;28;20032;-56
2023/12/04 08:19:30;;;;;;;12.87;10.13;;;;;;;;;;5062201;28;20049;-56
2023/12/04 08:21:56;;;;;;;15.03;10.93;;;;;;;;;;5053949;28;20051;-56
2023/12/04 08:24:22;;;;;;;16.33;10.77;;;;;;;;;;5064779;28;20020;-57
2023/12/04 08:26:50;;;;;;;15.77;11.60;;;;;;;;;;5069212;28;20136;-58
2023/12/04 08:29:17;;;;;;;15.07;10.80;;;;;;;;;;5071936;28;20023;-59
2023/12/04 08:31:43;;;;;;;14.93;10.60;;;;;;;;;;5061536;28;20405;-53
2023/12/04 08:34:09;;;;;;;12.20;10.07;;;;;;;;;;5068750;28;20027;-57
2023/12/04 08:36:35;;;;;;;14.73;11.10;;;;;;;;;;5057636;28;20048;-56
2023/12/04 08:39:01;;;;;;;15.80;10.00;;;;;;;;;;5071702;28;20347;-56
2023/12/04 08:41:28;;;;;;;16.97;10.17;;;;;;;;;;5062469;28;20340;-57
2023/12/04 08:43:55;;;;;;;12.73;10.27;;;;;;;;;;5066267;28;20571;-56
2023/12/04 08:46:21;;;;;;;14.53;10.17;;;;;;;;;;5061589;28;20082;-56
2023/12/04 08:48:47;;;;;;;16.57;10.60;;;;;;;;;;5054142;28;20029;-57
2023/12/04 08:51:19;;;;;;;14.97;11.53;;;;;;;;;;5064116;28;20359;-57
2023/12/04 08:53:45;;;;;;;12.20;9.03;;;;;;;;;;5065925;28;20021;-55
2023/12/04 08:56:12;;;;;;;16.40;10.53;;;;;;;;;;5072324;28;20034;-57
2023/12/04 08:58:38;;;;;;;13.17;9.83;;;;;;;;;;5072312;28;20032;-59
2023/12/04 09:01:04;;;;;;;13.50;10.30;;;;;;;;;;5069239;28;20115;-57
2023/12/04 09:03:31;;;;;;;12.63;9.87;;;;;;;;;;5061096;28;20031;-57
2023/12/04 09:05:57;;;;;;;13.47;9.90;;;;;;;;;;5058376;28;20024;-56
2023/12/04 09:08:26;;;;;;;13.63;10.30;;;;;;;;;;5068764;28;20132;-56
2023/12/04 09:10:52;;;;;;;14.90;10.73;;;;;;;;;;5060650;28;20032;-57
2023/12/04 09:13:18;;;;;;;14.53;11.03;;;;;;;;;;5056305;28;20025;-57
2023/12/04 09:15:44;;;;;;;14.87;10.73;;;;;;;;;;5065606;28;20109;-57
2023/12/04 09:18:10;;;;;;;15.67;10.63;;;;;;;;;;5064393;28;20044;-56
2023/12/04 09:20:36;;;;;;;17.23;11.27;;;;;;;;;;5065232;28;20358;-58
2023/12/04 09:23:02;;;;;;;17.73;10.50;;;;;;;;;;5065640;28;20028;-56
2023/12/04 09:25:28;;;;;;;17.33;10.63;;;;;;;;;;5060076;28;20032;-57
2023/12/04 09:27:54;;;;;;;16.57;10.37;;;;;;;;;;5071144;28;20446;-57
2023/12/04 09:30:20;;;;;;;10.70;9.60;;;;;;;;;;5066143;28;20039;-58
2023/12/04 09:32:46;;;;;;;15.40;10.60;;;;;;;;;;5060358;28;20376;-56
2023/12/04 09:35:12;;;;;;;10.83;9.47;;;;;;;;;;5068456;28;20025;-56
2023/12/04 09:37:38;;;;;;;12.07;10.13;;;;;;;;;;5067200;28;20385;-56
2023/12/04 09:40:05;;;;;;;14.33;11.00;;;;;;;;;;5072813;28;20021;-56
2023/12/04 09:42:32;;;;;;;11.93;9.10;;;;;;;;;;5065059;28;20078;-56
2023/12/04 09:44:59;;;;;;;11.87;9.03;;;;;;;;;;5072832;28;20490;-56
2023/12/04 09:47:26;;;;;;;10.97;8.60;;;;;;;;;;5072858;28;20012;-58
2023/12/04 09:49:53;;;;;;;16.30;11.07;;;;;;;;;;5072897;28;20029;-58
2023/12/04 09:52:20;;;;;;;13.00;9.67;;;;;;;;;;5069167;28;20023;-57
2023/12/04 09:54:46;;;;;;;12.90;10.10;;;;;;;;;;5065153;28;20032;-57
2023/12/04 09:57:15;;;;;;;12.77;9.40;;;;;;;;;;5060165;28;20032;-57
2023/12/04 09:59:44;;;;;;;12.77;9.10;;;;;;;;;;5067998;28;20024;-52
2023/12/04 10:02:10;;;;;;;12.60;8.97;;;;;;;;;;5063909;28;20024;-50
2023/12/04 10:04:36;;;;;;;11.30;9.27;;;;;;;;;;5069357;28;20423;-51
2023/12/04 10:07:02;;;;;;;10.90;9.03;;;;;;;;;;5066280;28;20036;-50
2023/12/04 10:09:28;;;;;;;13.83;9.53;;;;;;;;;;5066204;28;20052;-51
2023/12/04 10:11:56;;;;;;;10.97;8.73;;;;;;;;;;5059281;28;20060;-52
2023/12/04 10:14:23;;;;;;;10.17;8.37;;;;;;;;;;5062274;28;20128;-54
2023/12/04 10:16:50;;;;;;;10.83;8.73;;;;;;;;;;5066372;28;20027;-50
2023/12/04 10:19:17;;;;;;;10.13;8.40;;;;;;;;;;5071396;28;20111;-50
2023/12/04 10:21:44;;;;;;;18.07;9.07;;;;;;;;;;5067001;28;20437;-50
2023/12/04 10:24:10;;;;;;;9.53;8.50;;;;;;;;;;5062758;28;20021;-53
2023/12/04 10:26:36;;;;;;;12.00;8.87;;;;;;;;;;5058128;28;20037;-50
2023/12/04 10:29:02;;;;;;;13.50;9.27;;;;;;;;;;5070866;28;20043;-50
2023/12/04 10:31:35;;;;;;;15.20;8.87;;;;;;;;;;5060785;28;20029;-51
2023/12/04 10:34:01;;;;;;;11.33;9.13;;;;;;;;;;5070296;28;20024;-51
2023/12/04 10:36:27;;;;;;;11.50;9.47;;;;;;;;;;5062580;28;20552;-50
2023/12/04 10:39:09;;;;;;;12.07;8.23;;;;;;;;;;5061706;28;20489;-49
2023/12/04 10:41:35;;;;;;;13.30;9.40;;;;;;;;;;5071000;28;20163;-51
2023/12/04 10:44:01;;;;;;;11.87;8.93;;;;;;;;;;5061577;28;20525;-53
2023/12/04 10:46:29;;;;;;;11.63;8.73;;;;;;;;;;5062224;28;20048;-50
2023/12/04 10:48:55;;;;;;;11.40;9.30;;;;;;;;;;5064802;28;20025;-52
2023/12/04 10:51:22;;;;;;;12.60;9.50;;;;;;;;;;5066143;28;20040;-50
2023/12/04 10:53:48;;;;;;;11.27;9.33;;;;;;;;;;5074823;28;20390;-52
2023/12/04 10:56:20;;;;;;;16.63;10.67;;;;;;;;;;5068709;28;20039;-51
2023/12/04 10:58:50;;;;;;;15.10;12.00;;;;;;;;;;5059631;28;20095;-53
2023/12/04 11:01:17;;;;;;;13.47;9.40;;;;;;;;;;5058174;28;20020;-50
2023/12/04 11:03:49;;;;;;;13.03;9.73;;;;;;;;;;5063502;28;20470;-54
2023/12/04 11:06:16;;;;;;;13.30;9.80;;;;;;;;;;5054235;28;20040;-52
2023/12/04 11:08:43;;;;;;;12.57;9.40;;;;;;;;;;5060426;28;20025;-51
2023/12/04 11:11:12;;;;;;;11.70;9.23;;;;;;;;;;5071607;28;20078;-52
2023/12/04 11:13:43;;;;;;;14.57;9.53;;;;;;;;;;5063071;28;20039;-54
2023/12/04 11:16:12;;;;;;;13.63;9.93;;;;;;;;;;5069716;28;20480;-52
2023/12/04 11:18:41;;;;;;;10.40;9.00;;;;;;;;;;5061591;28;20041;-54
2023/12/04 11:21:08;;;;;;;14.40;9.43;;;;;;;;;;5062450;28;20021;-51
2023/12/04 11:23:35;;;;;;;14.33;8.80;;;;;;;;;;5069257;28;20070;-52
2023/12/04 11:26:03;;;;;;;12.13;7.73;;;;;;;;;;5068715;28;20093;-49
2023/12/04 11:28:29;;;;;;;10.23;7.50;;;;;;;;;;5062525;28;20025;-49
2023/12/04 11:30:56;;;;;;;11.93;7.93;;;;;;;;;;5067805;28;20099;-51
2023/12/04 11:33:22;;;;;;;12.23;8.77;;;;;;;;;;5064809;28;20017;-53
2023/12/04 11:35:50;;;;;;;10.27;7.60;;;;;;;;;;5076435;28;20066;-50
2023/12/04 11:38:17;;;;;;;10.40;7.37;;;;;;;;;;5067894;28;20083;-51
2023/12/04 11:40:43;;;;;;;11.13;7.63;;;;;;;;;;5064427;28;20017;-51
2023/12/04 11:43:23;;;;;;;11.33;7.87;;;;;;;;;;5070222;28;20040;-52
2023/12/04 11:45:49;;;;;;;10.90;7.90;;;;;;;;;;5072051;28;20102;-53
2023/12/04 11:48:15;;;;;;;11.53;7.57;;;;;;;;;;5063925;28;20033;-49
2023/12/04 11:50:43;;;;;;;9.77;8.00;;;;;;;;;;5060838;28;20390;-51
2023/12/04 11:53:11;;;;;;;11.63;8.57;;;;;;;;;;5057084;28;20078;-52
2023/12/04 11:55:40;;;;;;;11.30;8.27;;;;;;;;;;5064775;28;20095;-50
2023/12/04 11:58:09;;;;;;;10.83;8.23;;;;;;;;;;5064389;28;20543;-53
2023/12/04 12:00:36;;;;;;;11.77;8.53;;;;;;;;;;5062207;28;20488;-52
2023/12/04 12:03:04;;;;;;;10.77;9.00;;;;;;;;;;5058470;28;20025;-53
2023/12/04 12:05:31;;;;;;;14.00;8.83;;;;;;;;;;5058583;28;20031;-54
2023/12/04 12:08:00;;;;;;;14.87;9.13;;;;;;;;;;5066430;28;20021;-53
2023/12/04 12:10:26;;;;;;;12.57;9.60;;;;;;;;;;5061074;28;20029;-53
2023/12/04 12:12:52;;;;;;;14.60;10.43;;;;;;;;;;5058923;28;20068;-53
2023/12/04 12:15:18;;;;;;;11.40;8.87;;;;;;;;;;5068572;28;20050;-53
2023/12/04 12:17:44;;;;;;;13.83;10.53;;;;;;;;;;5061805;28;20024;-52
2023/12/04 12:20:11;;;;;;;12.37;8.80;;;;;;;;;;5062116;28;20039;-51
2023/12/04 12:22:41;;;;;;;9.43;8.37;;;;;;;;;;5064993;28;20359;-51
2023/12/04 12:25:13;;;;;;;12.93;9.30;;;;;;;;;;5059461;28;20029;-53
2023/12/04 12:27:39;;;;;;;13.40;8.70;;;;;;;;;;5067302;28;20020;-49
2023/12/04 12:30:06;;;;;;;16.70;10.00;;;;;;;;;;5066563;28;20095;-51
2023/12/04 12:32:32;;;;;;;9.73;7.60;;;;;;;;;;5061744;28;20024;-50
2023/12/04 12:34:58;;;;;;;15.17;10.80;;;;;;;;;;5071524;28;20016;-52
2023/12/04 12:37:24;;;;;;;12.57;9.33;;;;;;;;;;5070990;28;20110;-51
2023/12/04 12:39:51;;;;;;;11.93;9.13;;;;;;;;;;5061897;28;20032;-53
2023/12/04 12:42:30;;;;;;;11.10;9.37;;;;;;;;;;5069529;28;20101;-50
2023/12/04 12:44:56;;;;;;;13.03;9.60;;;;;;;;;;5055263;28;20094;-54
2023/12/04 12:47:23;;;;;;;13.27;10.00;;;;;;;;;;5057817;28;20444;-52
2023/12/04 12:49:49;;;;;;;14.80;9.63;;;;;;;;;;5065401;28;20047;-50
2023/12/04 12:52:15;;;;;;;17.03;10.40;;;;;;;;;;5064722;28;20036;-52
2023/12/04 12:54:42;;;;;;;12.70;10.10;;;;;;;;;;5065841;28;20021;-54
2023/12/04 12:57:08;;;;;;;16.63;10.67;;;;;;;;;;5055529;28;20067;-51
2023/12/04 12:59:34;;;;;;;14.13;10.97;;;;;;;;;;5063135;28;20086;-49
2023/12/04 13:02:01;;;;;;;13.80;9.80;;;;;;;;;;5061941;28;20042;-53
2023/12/04 13:04:34;;;;;;;12.80;10.83;;;;;;;;;;5067977;28;20099;-51
2023/12/04 13:07:00;;;;;;;16.83;10.30;;;;;;;;;;5064582;28;20036;-53
2023/12/04 13:09:26;;;;;;;13.83;10.47;;;;;;;;;;5061961;28;20052;-54
2023/12/04 13:11:52;;;;;;;15.07;11.23;;;;;;;;;;5067925;28;20481;-50
2023/12/04 13:14:18;;;;;;;13.07;9.87;;;;;;;;;;5070681;28;20020;-51
2023/12/04 13:16:44;;;;;;;12.53;9.83;;;;;;;;;;5064135;28;20025;-49
2023/12/04 13:19:10;;;;;;;11.00;8.60;;;;;;;;;;5063408;28;20024;-52
2023/12/04 13:21:36;;;;;;;11.17;9.07;;;;;;;;;;5066159;28;20075;-49
2023/12/04 13:24:06;;;;;;;10.53;8.43;;;;;;;;;;5063322;28;20025;-51
2023/12/04 13:26:32;;;;;;;12.13;8.80;;;;;;;;;;5066584;28;20032;-54
2023/12/04 13:28:59;;;;;;;15.67;10.00;;;;;;;;;;5069504;28;20032;-53
2023/12/04 13:31:25;;;;;;;14.53;11.23;;;;;;;;;;5061422;28;20040;-67
2023/12/04 13:33:51;;;;;;;12.47;10.07;;;;;;;;;;5061731;28;20120;-68
2023/12/04 13:36:17;;;;;;;14.43;9.37;;;;;;;;;;5070916;28;20020;-64
2023/12/04 13:38:43;;;;;;;14.80;10.83;;;;;;;;;;5059309;28;20352;-65
2023/12/04 13:43:49;;;;;;;16.40;10.93;;;;;;;;;;5066420;28;20032;-74
2023/12/04 13:44:04;;;;;;;17.65;12.02;;;;;;;;;;5068923;28;20051;-60
2023/12/04 13:46:31;;;;;;;17.03;11.60;;;;;;;;;;5057095;28;20041;-61
2023/12/04 13:48:57;;;;;;;15.67;10.97;;;;;;;;;;5066740;28;20382;-62
2023/12/04 13:51:23;;;;;;;15.73;11.37;;;;;;;;;;5064032;28;20024;-62
2023/12/04 13:53:55;;;;;;;16.90;10.70;;;;;;;;;;5061472;28;20177;-69
2023/12/04 13:58:52;;;;;;;14.37;11.30;;;;;;;;;;5059136;28;20497;-61
2023/12/04 14:01:22;;;;;;;13.50;9.20;;;;;;;;;;5065432;28;20024;-69
2023/12/04 14:03:48;;;;;;;15.40;9.80;;;;;;;;;;5067142;28;20029;-61
2023/12/04 14:06:15;;;;;;;14.53;10.00;;;;;;;;;;5072437;28;20033;-61
2023/12/04 14:08:41;;;;;;;12.33;9.40;;;;;;;;;;5055230;28;20413;-61
2023/12/04 14:11:09;;;;;;;14.00;9.70;;;;;;;;;;5066289;28;20032;-64
2023/12/04 14:13:36;;;;;;;12.33;9.10;;;;;;;;;;5060903;28;20116;-59
2023/12/04 14:16:02;;;;;;;14.60;10.37;;;;;;;;;;5056453;28;20063;-59
2023/12/04 14:18:30;;;;;;;14.60;10.57;;;;;;;;;;5068864;28;20016;-56
2023/12/04 14:20:56;;;;;;;13.83;9.97;;;;;;;;;;5057681;28;20028;-55
2023/12/04 14:23:22;;;;;;;13.73;9.67;;;;;;;;;;5057876;28;20592;-59
2023/12/04 14:25:48;;;;;;;14.57;9.90;;;;;;;;;;5059980;28;20080;-60
2023/12/04 14:28:14;;;;;;;12.23;10.97;;;;;;;;;;5054845;28;20075;-59
2023/12/04 14:30:40;;;;;;;13.93;10.87;;;;;;;;;;5068287;28;20021;-61